Aviation Digital Data Service (ADDS)

Output produced by METARs form (0604 UTC 21 January 2019)
found at http://www.aviationweather.gov/metar/data/
 
METAR text: ZSSS 210530Z 30003MPS 260V330 CAVOK 09/M03 Q1027 NOSIG
Conditions at: ZSSS (SHANGHAI/HONGQIA, CN) observed 0530 UTC 21 January 2019
Temperature: 9.0°C (48°F)
Dewpoint: -3.0°C (27°F) [RH = 43%]
Pressure (altimeter): 30.32 inches Hg (1027.0 mb)
Winds: from the WNW (300 degrees) at 7 MPH (6 knots; 3.1 m/s)
Visibility: 6 or more miles (10+ km)
Ceiling: ceiling and visibility are OK
Clouds: unknown
Weather: no significant weather observed at this time

METAR text: ZSSS 210500Z 28005MPS CAVOK 08/M04 Q1027 NOSIG
Conditions at: ZSSS (SHANGHAI/HONGQIA, CN) observed 0500 UTC 21 January 2019
Temperature: 8.0°C (46°F)
Dewpoint: -4.0°C (25°F) [RH = 42%]
Pressure (altimeter): 30.32 inches Hg (1027.0 mb)
Winds: from the W (280 degrees) at 12 MPH (10 knots; 5.1 m/s)
Visibility: 6 or more miles (10+ km)
Ceiling: ceiling and visibility are OK
Clouds: unknown
Weather: no significant weather observed at this time

METAR text: ZSSS 210430Z 30005MPS CAVOK 08/M05 Q1028 NOSIG
Conditions at: ZSSS (SHANGHAI/HONGQIA, CN) observed 0430 UTC 21 January 2019
Temperature: 8.0°C (46°F)
Dewpoint: -5.0°C (23°F) [RH = 39%]
Pressure (altimeter): 30.35 inches Hg (1028.0 mb)
Winds: from the WNW (300 degrees) at 12 MPH (10 knots; 5.1 m/s)
Visibility: 6 or more miles (10+ km)
Ceiling: ceiling and visibility are OK
Clouds: unknown
Weather: no significant weather observed at this time

METAR text: ZSSS 210400Z 33005MPS CAVOK 08/M06 Q1028 NOSIG
Conditions at: ZSSS (SHANGHAI/HONGQIA, CN) observed 0400 UTC 21 January 2019
Temperature: 8.0°C (46°F)
Dewpoint: -6.0°C (21°F) [RH = 36%]
Pressure (altimeter): 30.35 inches Hg (1028.0 mb)
Winds: from the NNW (330 degrees) at 12 MPH (10 knots; 5.1 m/s)
Visibility: 6 or more miles (10+ km)
Ceiling: ceiling and visibility are OK
Clouds: unknown
Weather: no significant weather observed at this time

METAR text: ZSSS 210330Z 32004MPS 280V010 CAVOK 07/M06 Q1029 NOSIG
Conditions at: ZSSS (SHANGHAI/HONGQIA, CN) observed 0330 UTC 21 January 2019
Temperature: 7.0°C (45°F)
Dewpoint: -6.0°C (21°F) [RH = 39%]
Pressure (altimeter): 30.38 inches Hg (1029.0 mb)
Winds: from the NW (320 degrees) at 9 MPH (8 knots; 4.1 m/s)
Visibility: 6 or more miles (10+ km)
Ceiling: ceiling and visibility are OK
Clouds: unknown
Weather: no significant weather observed at this time

METAR text: ZSSS 210300Z 31003MPS 250V360 CAVOK 08/M07 Q1030 NOSIG
Conditions at: ZSSS (SHANGHAI/HONGQIA, CN) observed 0300 UTC 21 January 2019
Temperature: 8.0°C (46°F)
Dewpoint: -7.0°C (19°F) [RH = 34%]
Pressure (altimeter): 30.41 inches Hg (1030.0 mb)
Winds: from the NW (310 degrees) at 7 MPH (6 knots; 3.1 m/s)
Visibility: 6 or more miles (10+ km)
Ceiling: ceiling and visibility are OK
Clouds: unknown
Weather: no significant weather observed at this time

METAR text: ZSSS 210230Z 31003MPS 270V330 CAVOK 08/M05 Q1030 NOSIG
Conditions at: ZSSS (SHANGHAI/HONGQIA, CN) observed 0230 UTC 21 January 2019
Temperature: 8.0°C (46°F)
Dewpoint: -5.0°C (23°F) [RH = 39%]
Pressure (altimeter): 30.41 inches Hg (1030.0 mb)
Winds: from the NW (310 degrees) at 7 MPH (6 knots; 3.1 m/s)
Visibility: 6 or more miles (10+ km)
Ceiling: ceiling and visibility are OK
Clouds: unknown
Weather: no significant weather observed at this time

METAR text: ZSSS 210200Z 28002MPS 220V330 CAVOK 07/M04 Q1030 NOSIG
Conditions at: ZSSS (SHANGHAI/HONGQIA, CN) observed 0200 UTC 21 January 2019
Temperature: 7.0°C (45°F)
Dewpoint: -4.0°C (25°F) [RH = 45%]
Pressure (altimeter): 30.41 inches Hg (1030.0 mb)
Winds: from the W (280 degrees) at 5 MPH (4 knots; 2.1 m/s)
Visibility: 6 or more miles (10+ km)
Ceiling: ceiling and visibility are OK
Clouds: unknown
Weather: no significant weather observed at this time

METAR text: ZSSS 210130Z 29002MPS 250V350 CAVOK 05/M04 Q1030 NOSIG
Conditions at: ZSSS (SHANGHAI/HONGQIA, CN) observed 0130 UTC 21 January 2019
Temperature: 5.0°C (41°F)
Dewpoint: -4.0°C (25°F) [RH = 52%]
Pressure (altimeter): 30.41 inches Hg (1030.0 mb)
Winds: from the WNW (290 degrees) at 5 MPH (4 knots; 2.1 m/s)
Visibility: 6 or more miles (10+ km)
Ceiling: ceiling and visibility are OK
Clouds: unknown
Weather: no significant weather observed at this time

METAR text: ZSSS 210100Z 28002MPS 250V330 CAVOK 04/M04 Q1030 NOSIG
Conditions at: ZSSS (SHANGHAI/HONGQIA, CN) observed 0100 UTC 21 January 2019
Temperature: 4.0°C (39°F)
Dewpoint: -4.0°C (25°F) [RH = 56%]
Pressure (altimeter): 30.41 inches Hg (1030.0 mb)
Winds: from the W (280 degrees) at 5 MPH (4 knots; 2.1 m/s)
Visibility: 6 or more miles (10+ km)
Ceiling: ceiling and visibility are OK
Clouds: unknown
Weather: no significant weather observed at this time

METAR text: ZSSS 210030Z 28003MPS 260V330 CAVOK 03/M03 Q1030 NOSIG
Conditions at: ZSSS (SHANGHAI/HONGQIA, CN) observed 0030 UTC 21 January 2019
Temperature: 3.0°C (37°F)
Dewpoint: -3.0°C (27°F) [RH = 65%]
Pressure (altimeter): 30.41 inches Hg (1030.0 mb)
Winds: from the W (280 degrees) at 7 MPH (6 knots; 3.1 m/s)
Visibility: 6 or more miles (10+ km)
Ceiling: ceiling and visibility are OK
Clouds: unknown
Weather: no significant weather observed at this time

METAR text: ZSSS 210000Z 28003MPS 260V320 CAVOK 03/M03 Q1030 NOSIG
Conditions at: ZSSS (SHANGHAI/HONGQIA, CN) observed 0000 UTC 21 January 2019
Temperature: 3.0°C (37°F)
Dewpoint: -3.0°C (27°F) [RH = 65%]
Pressure (altimeter): 30.41 inches Hg (1030.0 mb)
Winds: from the W (280 degrees) at 7 MPH (6 knots; 3.1 m/s)
Visibility: 6 or more miles (10+ km)
Ceiling: ceiling and visibility are OK
Clouds: unknown
Weather: no significant weather observed at this time

METAR text: ZSSS 202330Z 27002MPS 220V310 CAVOK 01/M04 Q1031 NOSIG
Conditions at: ZSSS (SHANGHAI/HONGQIA, CN) observed 2330 UTC 20 January 2019
Temperature: 1.0°C (34°F)
Dewpoint: -4.0°C (25°F) [RH = 69%]
Pressure (altimeter): 30.44 inches Hg (1031.0 mb)
Winds: from the W (270 degrees) at 5 MPH (4 knots; 2.1 m/s)
Visibility: 6 or more miles (10+ km)
Ceiling: ceiling and visibility are OK
Clouds: unknown
Weather: no significant weather observed at this time

METAR text: ZSSS 202300Z 26002MPS 240V310 CAVOK 01/M04 Q1030 NOSIG
Conditions at: ZSSS (SHANGHAI/HONGQIA, CN) observed 2300 UTC 20 January 2019
Temperature: 1.0°C (34°F)
Dewpoint: -4.0°C (25°F) [RH = 69%]
Pressure (altimeter): 30.41 inches Hg (1030.0 mb)
Winds: from the W (260 degrees) at 5 MPH (4 knots; 2.1 m/s)
Visibility: 6 or more miles (10+ km)
Ceiling: ceiling and visibility are OK
Clouds: unknown
Weather: no significant weather observed at this time

METAR text: ZSSS 202230Z 24002MPS CAVOK 00/M04 Q1030 NOSIG
Conditions at: ZSSS (SHANGHAI/HONGQIA, CN) observed 2230 UTC 20 January 2019
Temperature: 0.0°C (32°F)
Dewpoint: -4.0°C (25°F) [RH = 74%]
Pressure (altimeter): 30.41 inches Hg (1030.0 mb)
Winds: from the WSW (240 degrees) at 5 MPH (4 knots; 2.1 m/s)
Visibility: 6 or more miles (10+ km)
Ceiling: ceiling and visibility are OK
Clouds: unknown
Weather: no significant weather observed at this time

METAR text: ZSSS 202200Z 25002MPS CAVOK 00/M03 Q1030 NOSIG
Conditions at: ZSSS (SHANGHAI/HONGQIA, CN) observed 2200 UTC 20 January 2019
Temperature: 0.0°C (32°F)
Dewpoint: -3.0°C (27°F) [RH = 80%]
Pressure (altimeter): 30.41 inches Hg (1030.0 mb)
Winds: from the WSW (250 degrees) at 5 MPH (4 knots; 2.1 m/s)
Visibility: 6 or more miles (10+ km)
Ceiling: ceiling and visibility are OK
Clouds: unknown
Weather: no significant weather observed at this time

METAR text: ZSSS 202130Z VRB01MPS CAVOK M00/M03 Q1030 NOSIG
Conditions at: ZSSS (SHANGHAI/HONGQIA, CN) observed 2130 UTC 20 January 2019
Temperature: 0.0°C (32°F)
Dewpoint: -3.0°C (27°F) [RH = 80%]
Pressure (altimeter): 30.41 inches Hg (1030.0 mb)
Winds: variable direction winds at 2 MPH (2 knots; 1.0 m/s)
Visibility: 6 or more miles (10+ km)
Ceiling: ceiling and visibility are OK
Clouds: unknown
Weather: no significant weather observed at this time

METAR text: ZSSS 202100Z VRB01MPS CAVOK 00/M04 Q1029 NOSIG
Conditions at: ZSSS (SHANGHAI/HONGQIA, CN) observed 2100 UTC 20 January 2019
Temperature: 0.0°C (32°F)
Dewpoint: -4.0°C (25°F) [RH = 74%]
Pressure (altimeter): 30.38 inches Hg (1029.0 mb)
Winds: variable direction winds at 2 MPH (2 knots; 1.0 m/s)
Visibility: 6 or more miles (10+ km)
Ceiling: ceiling and visibility are OK
Clouds: unknown
Weather: no significant weather observed at this time

METAR text: ZSSS 202030Z 33002MPS CAVOK 01/M04 Q1029 NOSIG
Conditions at: ZSSS (SHANGHAI/HONGQIA, CN) observed 2030 UTC 20 January 2019
Temperature: 1.0°C (34°F)
Dewpoint: -4.0°C (25°F) [RH = 69%]
Pressure (altimeter): 30.38 inches Hg (1029.0 mb)
Winds: from the NNW (330 degrees) at 5 MPH (4 knots; 2.1 m/s)
Visibility: 6 or more miles (10+ km)
Ceiling: ceiling and visibility are OK
Clouds: unknown
Weather: no significant weather observed at this time

METAR text: ZSSS 202000Z 33003MPS CAVOK 01/M03 Q1029 NOSIG
Conditions at: ZSSS (SHANGHAI/HONGQIA, CN) observed 2000 UTC 20 January 2019
Temperature: 1.0°C (34°F)
Dewpoint: -3.0°C (27°F) [RH = 75%]
Pressure (altimeter): 30.38 inches Hg (1029.0 mb)
Winds: from the NNW (330 degrees) at 7 MPH (6 knots; 3.1 m/s)
Visibility: 6 or more miles (10+ km)
Ceiling: ceiling and visibility are OK
Clouds: unknown
Weather: no significant weather observed at this time

METAR text: ZSSS 201930Z 33002MPS CAVOK 01/M03 Q1030 NOSIG
Conditions at: ZSSS (SHANGHAI/HONGQIA, CN) observed 1930 UTC 20 January 2019
Temperature: 1.0°C (34°F)
Dewpoint: -3.0°C (27°F) [RH = 75%]
Pressure (altimeter): 30.41 inches Hg (1030.0 mb)
Winds: from the NNW (330 degrees) at 5 MPH (4 knots; 2.1 m/s)
Visibility: 6 or more miles (10+ km)
Ceiling: ceiling and visibility are OK
Clouds: unknown
Weather: no significant weather observed at this time

METAR text: ZSSS 201900Z 33002MPS CAVOK 01/M03 Q1030 NOSIG
Conditions at: ZSSS (SHANGHAI/HONGQIA, CN) observed 1900 UTC 20 January 2019
Temperature: 1.0°C (34°F)
Dewpoint: -3.0°C (27°F) [RH = 75%]
Pressure (altimeter): 30.41 inches Hg (1030.0 mb)
Winds: from the NNW (330 degrees) at 5 MPH (4 knots; 2.1 m/s)
Visibility: 6 or more miles (10+ km)
Ceiling: ceiling and visibility are OK
Clouds: unknown
Weather: no significant weather observed at this time

METAR text: ZSSS 201830Z 33002MPS CAVOK 01/M02 Q1031 NOSIG
Conditions at: ZSSS (SHANGHAI/HONGQIA, CN) observed 1830 UTC 20 January 2019
Temperature: 1.0°C (34°F)
Dewpoint: -2.0°C (28°F) [RH = 80%]
Pressure (altimeter): 30.44 inches Hg (1031.0 mb)
Winds: from the NNW (330 degrees) at 5 MPH (4 knots; 2.1 m/s)
Visibility: 6 or more miles (10+ km)
Ceiling: ceiling and visibility are OK
Clouds: unknown
Weather: no significant weather observed at this time

METAR text: ZSSS 201800Z 32002MPS CAVOK 01/M02 Q1031 NOSIG
Conditions at: ZSSS (SHANGHAI/HONGQIA, CN) observed 1800 UTC 20 January 2019
Temperature: 1.0°C (34°F)
Dewpoint: -2.0°C (28°F) [RH = 80%]
Pressure (altimeter): 30.44 inches Hg (1031.0 mb)
Winds: from the NW (320 degrees) at 5 MPH (4 knots; 2.1 m/s)
Visibility: 6 or more miles (10+ km)
Ceiling: ceiling and visibility are OK
Clouds: unknown
Weather: no significant weather observed at this time

METAR text: ZSSS 201730Z 33003MPS CAVOK 02/M02 Q1031 NOSIG
Conditions at: ZSSS (SHANGHAI/HONGQIA, CN) observed 1730 UTC 20 January 2019
Temperature: 2.0°C (36°F)
Dewpoint: -2.0°C (28°F) [RH = 75%]
Pressure (altimeter): 30.44 inches Hg (1031.0 mb)
Winds: from the NNW (330 degrees) at 7 MPH (6 knots; 3.1 m/s)
Visibility: 6 or more miles (10+ km)
Ceiling: ceiling and visibility are OK
Clouds: unknown
Weather: no significant weather observed at this time

METAR text: ZSSS 201700Z 34003MPS CAVOK 02/M02 Q1031 NOSIG
Conditions at: ZSSS (SHANGHAI/HONGQIA, CN) observed 1700 UTC 20 January 2019
Temperature: 2.0°C (36°F)
Dewpoint: -2.0°C (28°F) [RH = 75%]
Pressure (altimeter): 30.44 inches Hg (1031.0 mb)
Winds: from the NNW (340 degrees) at 7 MPH (6 knots; 3.1 m/s)
Visibility: 6 or more miles (10+ km)
Ceiling: ceiling and visibility are OK
Clouds: unknown
Weather: no significant weather observed at this time

METAR text: ZSSS 201630Z 34003MPS CAVOK 02/M02 Q1031 NOSIG
Conditions at: ZSSS (SHANGHAI/HONGQIA, CN) observed 1630 UTC 20 January 2019
Temperature: 2.0°C (36°F)
Dewpoint: -2.0°C (28°F) [RH = 75%]
Pressure (altimeter): 30.44 inches Hg (1031.0 mb)
Winds: from the NNW (340 degrees) at 7 MPH (6 knots; 3.1 m/s)
Visibility: 6 or more miles (10+ km)
Ceiling: ceiling and visibility are OK
Clouds: unknown
Weather: no significant weather observed at this time

METAR text: ZSSS 201600Z 34003MPS CAVOK 02/M02 Q1031 NOSIG
Conditions at: ZSSS (SHANGHAI/HONGQIA, CN) observed 1600 UTC 20 January 2019
Temperature: 2.0°C (36°F)
Dewpoint: -2.0°C (28°F) [RH = 75%]
Pressure (altimeter): 30.44 inches Hg (1031.0 mb)
Winds: from the NNW (340 degrees) at 7 MPH (6 knots; 3.1 m/s)
Visibility: 6 or more miles (10+ km)
Ceiling: ceiling and visibility are OK
Clouds: unknown
Weather: no significant weather observed at this time

METAR text: ZSSS 201530Z 34004MPS CAVOK 03/M02 Q1031 NOSIG
Conditions at: ZSSS (SHANGHAI/HONGQIA, CN) observed 1530 UTC 20 January 2019
Temperature: 3.0°C (37°F)
Dewpoint: -2.0°C (28°F) [RH = 70%]
Pressure (altimeter): 30.44 inches Hg (1031.0 mb)
Winds: from the NNW (340 degrees) at 9 MPH (8 knots; 4.1 m/s)
Visibility: 6 or more miles (10+ km)
Ceiling: ceiling and visibility are OK
Clouds: unknown
Weather: no significant weather observed at this time

METAR text: ZSSS 201500Z 35004MPS CAVOK 02/M02 Q1031 NOSIG
Conditions at: ZSSS (SHANGHAI/HONGQIA, CN) observed 1500 UTC 20 January 2019
Temperature: 2.0°C (36°F)
Dewpoint: -2.0°C (28°F) [RH = 75%]
Pressure (altimeter): 30.44 inches Hg (1031.0 mb)
Winds: from the N (350 degrees) at 9 MPH (8 knots; 4.1 m/s)
Visibility: 6 or more miles (10+ km)
Ceiling: ceiling and visibility are OK
Clouds: unknown
Weather: no significant weather observed at this time

METAR text: ZSSS 201430Z 36003MPS CAVOK 03/M02 Q1031 NOSIG
Conditions at: ZSSS (SHANGHAI/HONGQIA, CN) observed 1430 UTC 20 January 2019
Temperature: 3.0°C (37°F)
Dewpoint: -2.0°C (28°F) [RH = 70%]
Pressure (altimeter): 30.44 inches Hg (1031.0 mb)
Winds: from the N (360 degrees) at 7 MPH (6 knots; 3.1 m/s)
Visibility: 6 or more miles (10+ km)
Ceiling: ceiling and visibility are OK
Clouds: unknown
Weather: no significant weather observed at this time

METAR text: ZSSS 201400Z 36004MPS CAVOK 03/M02 Q1031 NOSIG
Conditions at: ZSSS (SHANGHAI/HONGQIA, CN) observed 1400 UTC 20 January 2019
Temperature: 3.0°C (37°F)
Dewpoint: -2.0°C (28°F) [RH = 70%]
Pressure (altimeter): 30.44 inches Hg (1031.0 mb)
Winds: from the N (360 degrees) at 9 MPH (8 knots; 4.1 m/s)
Visibility: 6 or more miles (10+ km)
Ceiling: ceiling and visibility are OK
Clouds: unknown
Weather: no significant weather observed at this time

METAR text: ZSSS 201330Z 36004MPS CAVOK 03/M02 Q1031 NOSIG
Conditions at: ZSSS (SHANGHAI/HONGQIA, CN) observed 1330 UTC 20 January 2019
Temperature: 3.0°C (37°F)
Dewpoint: -2.0°C (28°F) [RH = 70%]
Pressure (altimeter): 30.44 inches Hg (1031.0 mb)
Winds: from the N (360 degrees) at 9 MPH (8 knots; 4.1 m/s)
Visibility: 6 or more miles (10+ km)
Ceiling: ceiling and visibility are OK
Clouds: unknown
Weather: no significant weather observed at this time

METAR text: ZSSS 201300Z 36004MPS CAVOK 03/M02 Q1031 NOSIG
Conditions at: ZSSS (SHANGHAI/HONGQIA, CN) observed 1300 UTC 20 January 2019
Temperature: 3.0°C (37°F)
Dewpoint: -2.0°C (28°F) [RH = 70%]
Pressure (altimeter): 30.44 inches Hg (1031.0 mb)
Winds: from the N (360 degrees) at 9 MPH (8 knots; 4.1 m/s)
Visibility: 6 or more miles (10+ km)
Ceiling: ceiling and visibility are OK
Clouds: unknown
Weather: no significant weather observed at this time

METAR text: ZSSS 201230Z 01005MPS CAVOK 04/M02 Q1031 NOSIG
Conditions at: ZSSS (SHANGHAI/HONGQIA, CN) observed 1230 UTC 20 January 2019
Temperature: 4.0°C (39°F)
Dewpoint: -2.0°C (28°F) [RH = 65%]
Pressure (altimeter): 30.44 inches Hg (1031.0 mb)
Winds: from the N (10 degrees) at 12 MPH (10 knots; 5.1 m/s)
Visibility: 6 or more miles (10+ km)
Ceiling: ceiling and visibility are OK
Clouds: unknown
Weather: no significant weather observed at this time

METAR text: ZSSS 201200Z 01005MPS CAVOK 04/M03 Q1031 NOSIG
Conditions at: ZSSS (SHANGHAI/HONGQIA, CN) observed 1200 UTC 20 January 2019
Temperature: 4.0°C (39°F)
Dewpoint: -3.0°C (27°F) [RH = 60%]
Pressure (altimeter): 30.44 inches Hg (1031.0 mb)
Winds: from the N (10 degrees) at 12 MPH (10 knots; 5.1 m/s)
Visibility: 6 or more miles (10+ km)
Ceiling: ceiling and visibility are OK
Clouds: unknown
Weather: no significant weather observed at this time

METAR text: ZSSS 201130Z 01006MPS 9999 FEW033 05/M03 Q1031 NOSIG
Conditions at: ZSSS (SHANGHAI/HONGQIA, CN) observed 1130 UTC 20 January 2019
Temperature: 5.0°C (41°F)
Dewpoint: -3.0°C (27°F) [RH = 56%]
Pressure (altimeter): 30.44 inches Hg (1031.0 mb)
Winds: from the N (10 degrees) at 14 MPH (12 knots; 6.2 m/s)
Visibility: 6 or more miles (10+ km)
Ceiling: at least 12,000 feet AGL
Clouds: few clouds at 3300 feet AGL
Weather: no significant weather observed at this time

METAR text: ZSSS 201100Z 01006MPS 9999 SCT033 05/M02 Q1031 NOSIG
Conditions at: ZSSS (SHANGHAI/HONGQIA, CN) observed 1100 UTC 20 January 2019
Temperature: 5.0°C (41°F)
Dewpoint: -2.0°C (28°F) [RH = 60%]
Pressure (altimeter): 30.44 inches Hg (1031.0 mb)
Winds: from the N (10 degrees) at 14 MPH (12 knots; 6.2 m/s)
Visibility: 6 or more miles (10+ km)
Ceiling: at least 12,000 feet AGL
Clouds: scattered clouds at 3300 feet AGL
Weather: no significant weather observed at this time

METAR text: ZSSS 201030Z 01007MPS 9999 BKN033 05/M02 Q1030 NOSIG
Conditions at: ZSSS (SHANGHAI/HONGQIA, CN) observed 1030 UTC 20 January 2019
Temperature: 5.0°C (41°F)
Dewpoint: -2.0°C (28°F) [RH = 60%]
Pressure (altimeter): 30.41 inches Hg (1030.0 mb)
Winds: from the N (10 degrees) at 16 MPH (14 knots; 7.2 m/s)
Visibility: 6 or more miles (10+ km)
Ceiling: 3300 feet AGL
Clouds: broken clouds at 3300 feet AGL
Weather: no significant weather observed at this time

METAR text: ZSSS 201000Z 02007MPS 9999 SCT033 06/M02 Q1030 NOSIG
Conditions at: ZSSS (SHANGHAI/HONGQIA, CN) observed 1000 UTC 20 January 2019
Temperature: 6.0°C (43°F)
Dewpoint: -2.0°C (28°F) [RH = 56%]
Pressure (altimeter): 30.41 inches Hg (1030.0 mb)
Winds: from the NNE (20 degrees) at 16 MPH (14 knots; 7.2 m/s)
Visibility: 6 or more miles (10+ km)
Ceiling: at least 12,000 feet AGL
Clouds: scattered clouds at 3300 feet AGL
Weather: no significant weather observed at this time

METAR text: ZSSS 200930Z 02007MPS 9999 SCT040 06/M02 Q1029 NOSIG
Conditions at: ZSSS (SHANGHAI/HONGQIA, CN) observed 0930 UTC 20 January 2019
Temperature: 6.0°C (43°F)
Dewpoint: -2.0°C (28°F) [RH = 56%]
Pressure (altimeter): 30.38 inches Hg (1029.0 mb)
Winds: from the NNE (20 degrees) at 16 MPH (14 knots; 7.2 m/s)
Visibility: 6 or more miles (10+ km)
Ceiling: at least 12,000 feet AGL
Clouds: scattered clouds at 4000 feet AGL
Weather: no significant weather observed at this time

METAR text: ZSSS 200900Z 02007MPS 9999 SCT040 07/M02 Q1029 NOSIG
Conditions at: ZSSS (SHANGHAI/HONGQIA, CN) observed 0900 UTC 20 January 2019
Temperature: 7.0°C (45°F)
Dewpoint: -2.0°C (28°F) [RH = 53%]
Pressure (altimeter): 30.38 inches Hg (1029.0 mb)
Winds: from the NNE (20 degrees) at 16 MPH (14 knots; 7.2 m/s)
Visibility: 6 or more miles (10+ km)
Ceiling: at least 12,000 feet AGL
Clouds: scattered clouds at 4000 feet AGL
Weather: no significant weather observed at this time

METAR text: ZSSS 200830Z 01007MPS 9999 FEW040 07/M02 Q1028 NOSIG
Conditions at: ZSSS (SHANGHAI/HONGQIA, CN) observed 0830 UTC 20 January 2019
Temperature: 7.0°C (45°F)
Dewpoint: -2.0°C (28°F) [RH = 53%]
Pressure (altimeter): 30.35 inches Hg (1028.0 mb)
Winds: from the N (10 degrees) at 16 MPH (14 knots; 7.2 m/s)
Visibility: 6 or more miles (10+ km)
Ceiling: at least 12,000 feet AGL
Clouds: few clouds at 4000 feet AGL
Weather: no significant weather observed at this time

METAR text: ZSSS 200800Z 01008MPS 9999 SCT040 08/M01 Q1029 NOSIG
Conditions at: ZSSS (SHANGHAI/HONGQIA, CN) observed 0800 UTC 20 January 2019
Temperature: 8.0°C (46°F)
Dewpoint: -1.0°C (30°F) [RH = 53%]
Pressure (altimeter): 30.38 inches Hg (1029.0 mb)
Winds: from the N (10 degrees) at 18 MPH (16 knots; 8.2 m/s)
Visibility: 6 or more miles (10+ km)
Ceiling: at least 12,000 feet AGL
Clouds: scattered clouds at 4000 feet AGL
Weather: no significant weather observed at this time

METAR text: ZSSS 200730Z 01007MPS 9999 BKN040 08/M02 Q1028 NOSIG
Conditions at: ZSSS (SHANGHAI/HONGQIA, CN) observed 0730 UTC 20 January 2019
Temperature: 8.0°C (46°F)
Dewpoint: -2.0°C (28°F) [RH = 49%]
Pressure (altimeter): 30.35 inches Hg (1028.0 mb)
Winds: from the N (10 degrees) at 16 MPH (14 knots; 7.2 m/s)
Visibility: 6 or more miles (10+ km)
Ceiling: 4000 feet AGL
Clouds: broken clouds at 4000 feet AGL
Weather: no significant weather observed at this time

METAR text: ZSSS 200700Z 01008MPS 9999 BKN040 09/M02 Q1028 NOSIG
Conditions at: ZSSS (SHANGHAI/HONGQIA, CN) observed 0700 UTC 20 January 2019
Temperature: 9.0°C (48°F)
Dewpoint: -2.0°C (28°F) [RH = 46%]
Pressure (altimeter): 30.35 inches Hg (1028.0 mb)
Winds: from the N (10 degrees) at 18 MPH (16 knots; 8.2 m/s)
Visibility: 6 or more miles (10+ km)
Ceiling: 4000 feet AGL
Clouds: broken clouds at 4000 feet AGL
Weather: no significant weather observed at this time

METAR text: ZSSS 200630Z 02007MPS 7000 SCT040 09/M01 Q1028 NOSIG
Conditions at: ZSSS (SHANGHAI/HONGQIA, CN) observed 0630 UTC 20 January 2019
Temperature: 9.0°C (48°F)
Dewpoint: -1.0°C (30°F) [RH = 49%]
Pressure (altimeter): 30.35 inches Hg (1028.0 mb)
Winds: from the NNE (20 degrees) at 16 MPH (14 knots; 7.2 m/s)
Visibility: 4 miles ( 7 km)
Ceiling: at least 12,000 feet AGL
Clouds: scattered clouds at 4000 feet AGL
Weather: no significant weather observed at this time

METAR text: ZSSS 200600Z 34006MPS 320V020 5000 HZ FEW040 10/M01 Q1028 NOSIG
Conditions at: ZSSS (SHANGHAI/HONGQIA, CN) observed 0600 UTC 20 January 2019
Temperature: 10.0°C (50°F)
Dewpoint: -1.0°C (30°F) [RH = 46%]
Pressure (altimeter): 30.35 inches Hg (1028.0 mb)
Winds: from the NNW (340 degrees) at 14 MPH (12 knots; 6.2 m/s)
Visibility: 3 miles ( 5 km)
Ceiling: at least 12,000 feet AGL
Clouds: few clouds at 4000 feet AGL
Weather: HZ  (haze)

METAR text: ZSSS 200530Z 34006MPS 310V010 5000 HZ FEW033 09/M01 Q1028 NOSIG
Conditions at: ZSSS (SHANGHAI/HONGQIA, CN) observed 0530 UTC 20 January 2019
Temperature: 9.0°C (48°F)
Dewpoint: -1.0°C (30°F) [RH = 49%]
Pressure (altimeter): 30.35 inches Hg (1028.0 mb)
Winds: from the NNW (340 degrees) at 14 MPH (12 knots; 6.2 m/s)
Visibility: 3 miles ( 5 km)
Ceiling: at least 12,000 feet AGL
Clouds: few clouds at 3300 feet AGL
Weather: HZ  (haze)

METAR text: ZSSS 200500Z 36006MPS 340V040 5000 HZ FEW026 09/M01 Q1028 NOSIG
Conditions at: ZSSS (SHANGHAI/HONGQIA, CN) observed 0500 UTC 20 January 2019
Temperature: 9.0°C (48°F)
Dewpoint: -1.0°C (30°F) [RH = 49%]
Pressure (altimeter): 30.35 inches Hg (1028.0 mb)
Winds: from the N (360 degrees) at 14 MPH (12 knots; 6.2 m/s)
Visibility: 3 miles ( 5 km)
Ceiling: at least 12,000 feet AGL
Clouds: few clouds at 2600 feet AGL
Weather: HZ  (haze)

METAR text: ZSSS 200430Z 35006MPS 310V030 4500 HZ SCT026 09/01 Q1028 NOSIG
Conditions at: ZSSS (SHANGHAI/HONGQIA, CN) observed 0430 UTC 20 January 2019
Temperature: 9.0°C (48°F)
Dewpoint: 1.0°C (34°F) [RH = 57%]
Pressure (altimeter): 30.35 inches Hg (1028.0 mb)
Winds: from the N (350 degrees) at 14 MPH (12 knots; 6.2 m/s)
Visibility: 2.80 miles (4.51 km)
Ceiling: at least 12,000 feet AGL
Clouds: scattered clouds at 2600 feet AGL
Weather: HZ  (haze)

METAR text: ZSSS 200400Z 01007MPS 4500 HZ SCT026 08/01 Q1029 NOSIG
Conditions at: ZSSS (SHANGHAI/HONGQIA, CN) observed 0400 UTC 20 January 2019
Temperature: 8.0°C (46°F)
Dewpoint: 1.0°C (34°F) [RH = 61%]
Pressure (altimeter): 30.38 inches Hg (1029.0 mb)
Winds: from the N (10 degrees) at 16 MPH (14 knots; 7.2 m/s)
Visibility: 2.80 miles (4.51 km)
Ceiling: at least 12,000 feet AGL
Clouds: scattered clouds at 2600 feet AGL
Weather: HZ  (haze)

METAR text: ZSSS 200330Z 36006MPS 330V030 4200 HZ SCT020 08/01 Q1029 NOSIG
Conditions at: ZSSS (SHANGHAI/HONGQIA, CN) observed 0330 UTC 20 January 2019
Temperature: 8.0°C (46°F)
Dewpoint: 1.0°C (34°F) [RH = 61%]
Pressure (altimeter): 30.38 inches Hg (1029.0 mb)
Winds: from the N (360 degrees) at 14 MPH (12 knots; 6.2 m/s)
Visibility: 2.61 miles (4.20 km)
Ceiling: at least 12,000 feet AGL
Clouds: scattered clouds at 2000 feet AGL
Weather: HZ  (haze)

METAR text: ZSSS 200300Z 01007MPS 4000 HZ SCT020 07/02 Q1029 NOSIG
Conditions at: ZSSS (SHANGHAI/HONGQIA, CN) observed 0300 UTC 20 January 2019
Temperature: 7.0°C (45°F)
Dewpoint: 2.0°C (36°F) [RH = 70%]
Pressure (altimeter): 30.38 inches Hg (1029.0 mb)
Winds: from the N (10 degrees) at 16 MPH (14 knots; 7.2 m/s)
Visibility: 2.49 miles (4.01 km)
Ceiling: at least 12,000 feet AGL
Clouds: scattered clouds at 2000 feet AGL
Weather: HZ  (haze)

METAR text: ZSSS 200230Z 36006MPS 3500 HZ FEW020 07/02 Q1029 NOSIG
Conditions at: ZSSS (SHANGHAI/HONGQIA, CN) observed 0230 UTC 20 January 2019
Temperature: 7.0°C (45°F)
Dewpoint: 2.0°C (36°F) [RH = 70%]
Pressure (altimeter): 30.38 inches Hg (1029.0 mb)
Winds: from the N (360 degrees) at 14 MPH (12 knots; 6.2 m/s)
Visibility: 2.17 miles (3.49 km)
Ceiling: at least 12,000 feet AGL
Clouds: few clouds at 2000 feet AGL
Weather: HZ  (haze)

METAR text: ZSSS 200200Z 35005MPS 3500 BR FEW016 07/02 Q1030 NOSIG
Conditions at: ZSSS (SHANGHAI/HONGQIA, CN) observed 0200 UTC 20 January 2019
Temperature: 7.0°C (45°F)
Dewpoint: 2.0°C (36°F) [RH = 70%]
Pressure (altimeter): 30.41 inches Hg (1030.0 mb)
Winds: from the N (350 degrees) at 12 MPH (10 knots; 5.1 m/s)
Visibility: 2.17 miles (3.49 km)
Ceiling: at least 12,000 feet AGL
Clouds: few clouds at 1600 feet AGL
Weather: BR  (mist)

METAR text: ZSSS 200130Z 33005MPS 3500 BR FEW016 06/02 Q1030 NOSIG
Conditions at: ZSSS (SHANGHAI/HONGQIA, CN) observed 0130 UTC 20 January 2019
Temperature: 6.0°C (43°F)
Dewpoint: 2.0°C (36°F) [RH = 75%]
Pressure (altimeter): 30.41 inches Hg (1030.0 mb)
Winds: from the NNW (330 degrees) at 12 MPH (10 knots; 5.1 m/s)
Visibility: 2.17 miles (3.49 km)
Ceiling: at least 12,000 feet AGL
Clouds: few clouds at 1600 feet AGL
Weather: BR  (mist)

METAR text: ZSSS 200100Z 34005MPS 3500 BR NSC 06/02 Q1029 NOSIG
Conditions at: ZSSS (SHANGHAI/HONGQIA, CN) observed 0100 UTC 20 January 2019
Temperature: 6.0°C (43°F)
Dewpoint: 2.0°C (36°F) [RH = 75%]
Pressure (altimeter): 30.38 inches Hg (1029.0 mb)
Winds: from the NNW (340 degrees) at 12 MPH (10 knots; 5.1 m/s)
Visibility: 2.17 miles (3.49 km)
Ceiling: at least 12,000 feet AGL
Clouds: sky clear below 12,000 feet AGL
Weather: BR  (mist)

METAR text: ZSSS 200030Z 34006MPS 4000 BR NSC 05/01 Q1029 NOSIG
Conditions at: ZSSS (SHANGHAI/HONGQIA, CN) observed 0030 UTC 20 January 2019
Temperature: 5.0°C (41°F)
Dewpoint: 1.0°C (34°F) [RH = 75%]
Pressure (altimeter): 30.38 inches Hg (1029.0 mb)
Winds: from the NNW (340 degrees) at 14 MPH (12 knots; 6.2 m/s)
Visibility: 2.49 miles (4.01 km)
Ceiling: at least 12,000 feet AGL
Clouds: sky clear below 12,000 feet AGL
Weather: BR  (mist)

METAR text: ZSSS 200000Z 33005MPS 4000 BR NSC 05/02 Q1028 NOSIG
Conditions at: ZSSS (SHANGHAI/HONGQIA, CN) observed 0000 UTC 20 January 2019
Temperature: 5.0°C (41°F)
Dewpoint: 2.0°C (36°F) [RH = 81%]
Pressure (altimeter): 30.35 inches Hg (1028.0 mb)
Winds: from the NNW (330 degrees) at 12 MPH (10 knots; 5.1 m/s)
Visibility: 2.49 miles (4.01 km)
Ceiling: at least 12,000 feet AGL
Clouds: sky clear below 12,000 feet AGL
Weather: BR  (mist)

METAR text: ZSSS 192330Z 32005MPS 4000 BR NSC 05/02 Q1028 NOSIG
Conditions at: ZSSS (SHANGHAI/HONGQIA, CN) observed 2330 UTC 19 January 2019
Temperature: 5.0°C (41°F)
Dewpoint: 2.0°C (36°F) [RH = 81%]
Pressure (altimeter): 30.35 inches Hg (1028.0 mb)
Winds: from the NW (320 degrees) at 12 MPH (10 knots; 5.1 m/s)
Visibility: 2.49 miles (4.01 km)
Ceiling: at least 12,000 feet AGL
Clouds: sky clear below 12,000 feet AGL
Weather: BR  (mist)

METAR text: ZSSS 192300Z 31004MPS 4000 BR NSC 05/02 Q1028 NOSIG
Conditions at: ZSSS (SHANGHAI/HONGQIA, CN) observed 2300 UTC 19 January 2019
Temperature: 5.0°C (41°F)
Dewpoint: 2.0°C (36°F) [RH = 81%]
Pressure (altimeter): 30.35 inches Hg (1028.0 mb)
Winds: from the NW (310 degrees) at 9 MPH (8 knots; 4.1 m/s)
Visibility: 2.49 miles (4.01 km)
Ceiling: at least 12,000 feet AGL
Clouds: sky clear below 12,000 feet AGL
Weather: BR  (mist)

METAR text: ZSSS 192230Z 33004MPS 6000 NSC 05/02 Q1027 NOSIG
Conditions at: ZSSS (SHANGHAI/HONGQIA, CN) observed 2230 UTC 19 January 2019
Temperature: 5.0°C (41°F)
Dewpoint: 2.0°C (36°F) [RH = 81%]
Pressure (altimeter): 30.32 inches Hg (1027.0 mb)
Winds: from the NNW (330 degrees) at 9 MPH (8 knots; 4.1 m/s)
Visibility: 4 miles ( 6 km)
Ceiling: at least 12,000 feet AGL
Clouds: sky clear below 12,000 feet AGL
Weather: no significant weather observed at this time

METAR text: ZSSS 192200Z 33004MPS 6000 NSC 05/01 Q1027 NOSIG
Conditions at: ZSSS (SHANGHAI/HONGQIA, CN) observed 2200 UTC 19 January 2019
Temperature: 5.0°C (41°F)
Dewpoint: 1.0°C (34°F) [RH = 75%]
Pressure (altimeter): 30.32 inches Hg (1027.0 mb)
Winds: from the NNW (330 degrees) at 9 MPH (8 knots; 4.1 m/s)
Visibility: 4 miles ( 6 km)
Ceiling: at least 12,000 feet AGL
Clouds: sky clear below 12,000 feet AGL
Weather: no significant weather observed at this time

METAR text: ZSSS 192130Z 34005MPS 300V360 6000 NSC 05/02 Q1026 NOSIG
Conditions at: ZSSS (SHANGHAI/HONGQIA, CN) observed 2130 UTC 19 January 2019
Temperature: 5.0°C (41°F)
Dewpoint: 2.0°C (36°F) [RH = 81%]
Pressure (altimeter): 30.30 inches Hg (1026.0 mb)
Winds: from the NNW (340 degrees) at 12 MPH (10 knots; 5.1 m/s)
Visibility: 4 miles ( 6 km)
Ceiling: at least 12,000 feet AGL
Clouds: sky clear below 12,000 feet AGL
Weather: no significant weather observed at this time

METAR text: ZSSS 192100Z 34004MPS 6000 NSC 06/02 Q1026 NOSIG
Conditions at: ZSSS (SHANGHAI/HONGQIA, CN) observed 2100 UTC 19 January 2019
Temperature: 6.0°C (43°F)
Dewpoint: 2.0°C (36°F) [RH = 75%]
Pressure (altimeter): 30.30 inches Hg (1026.0 mb)
Winds: from the NNW (340 degrees) at 9 MPH (8 knots; 4.1 m/s)
Visibility: 4 miles ( 6 km)
Ceiling: at least 12,000 feet AGL
Clouds: sky clear below 12,000 feet AGL
Weather: no significant weather observed at this time

METAR text: ZSSS 192030Z 34005MPS 6000 NSC 06/02 Q1026 NOSIG
Conditions at: ZSSS (SHANGHAI/HONGQIA, CN) observed 2030 UTC 19 January 2019
Temperature: 6.0°C (43°F)
Dewpoint: 2.0°C (36°F) [RH = 75%]
Pressure (altimeter): 30.30 inches Hg (1026.0 mb)
Winds: from the NNW (340 degrees) at 12 MPH (10 knots; 5.1 m/s)
Visibility: 4 miles ( 6 km)
Ceiling: at least 12,000 feet AGL
Clouds: sky clear below 12,000 feet AGL
Weather: no significant weather observed at this time

METAR text: ZSSS 192000Z 34005MPS 6000 NSC 06/02 Q1025 NOSIG
Conditions at: ZSSS (SHANGHAI/HONGQIA, CN) observed 2000 UTC 19 January 2019
Temperature: 6.0°C (43°F)
Dewpoint: 2.0°C (36°F) [RH = 75%]
Pressure (altimeter): 30.27 inches Hg (1025.0 mb)
Winds: from the NNW (340 degrees) at 12 MPH (10 knots; 5.1 m/s)
Visibility: 4 miles ( 6 km)
Ceiling: at least 12,000 feet AGL
Clouds: sky clear below 12,000 feet AGL
Weather: no significant weather observed at this time

METAR text: ZSSS 191930Z 33005MPS 5000 BR NSC 07/03 Q1025 NOSIG
Conditions at: ZSSS (SHANGHAI/HONGQIA, CN) observed 1930 UTC 19 January 2019
Temperature: 7.0°C (45°F)
Dewpoint: 3.0°C (37°F) [RH = 76%]
Pressure (altimeter): 30.27 inches Hg (1025.0 mb)
Winds: from the NNW (330 degrees) at 12 MPH (10 knots; 5.1 m/s)
Visibility: 3 miles ( 5 km)
Ceiling: at least 12,000 feet AGL
Clouds: sky clear below 12,000 feet AGL
Weather: BR  (mist)

METAR text: ZSSS 191900Z 33005MPS 5000 BR NSC 07/04 Q1025 NOSIG
Conditions at: ZSSS (SHANGHAI/HONGQIA, CN) observed 1900 UTC 19 January 2019
Temperature: 7.0°C (45°F)
Dewpoint: 4.0°C (39°F) [RH = 81%]
Pressure (altimeter): 30.27 inches Hg (1025.0 mb)
Winds: from the NNW (330 degrees) at 12 MPH (10 knots; 5.1 m/s)
Visibility: 3 miles ( 5 km)
Ceiling: at least 12,000 feet AGL
Clouds: sky clear below 12,000 feet AGL
Weather: BR  (mist)

METAR text: ZSSS 191830Z 33005MPS 5000 BR NSC 07/04 Q1025 NOSIG
Conditions at: ZSSS (SHANGHAI/HONGQIA, CN) observed 1830 UTC 19 January 2019
Temperature: 7.0°C (45°F)
Dewpoint: 4.0°C (39°F) [RH = 81%]
Pressure (altimeter): 30.27 inches Hg (1025.0 mb)
Winds: from the NNW (330 degrees) at 12 MPH (10 knots; 5.1 m/s)
Visibility: 3 miles ( 5 km)
Ceiling: at least 12,000 feet AGL
Clouds: sky clear below 12,000 feet AGL
Weather: BR  (mist)

Forecast for: ZSSS (SHANGHAI/HONGQIA, CN)
Text: TAF ZSSS 210308Z 2106/2206 28004MPS 5000 BR NSC TX10/2106Z TN01/2121Z
Forecast period: 0600 UTC 21 January 2019 to 0600 UTC 22 January 2019
Forecast type: FROM: standard forecast or significant change
Winds: from the W (280 degrees) at 9 MPH (8 knots; 4.1 m/s)
Visibility: 3 miles (5 km)
Ceiling: unknown
Clouds: missing
Weather: BR  (mist)